createdAt,value
2023-05-19T00:03:28.628Z,64
2023-05-19T00:08:12.749Z,64
2023-05-19T00:12:56.956Z,64
2023-05-19T00:17:41.074Z,64
2023-05-19T00:22:25.287Z,64
2023-05-19T00:27:09.505Z,63.5
2023-05-19T00:31:53.618Z,63.5
2023-05-19T00:36:37.828Z,64
2023-05-19T00:46:06.166Z,64
2023-05-19T00:50:50.279Z,64
2023-05-19T00:55:34.495Z,63.5
2023-05-19T01:05:02.825Z,63
2023-05-19T01:09:47.040Z,63.5
2023-05-19T01:14:31.151Z,63.5
2023-05-19T01:19:15.370Z,63
2023-05-19T01:23:59.490Z,63.5
2023-05-19T01:28:43.706Z,64
2023-05-19T01:33:27.824Z,63.5
2023-05-19T01:38:12.032Z,64.5
2023-05-19T01:42:56.251Z,64.5
2023-05-19T01:47:40.365Z,63
2023-05-19T01:52:24.586Z,63.5
2023-05-19T01:57:08.704Z,64
2023-05-19T02:01:52.918Z,63.5
2023-05-19T02:06:37.033Z,64.5
2023-05-19T02:11:21.246Z,64.5
2023-05-19T02:16:05.454Z,64.5
2023-05-19T02:20:49.564Z,64.5
2023-05-19T02:25:34.094Z,65
2023-05-19T02:30:18.302Z,65
2023-05-19T02:35:02.425Z,65
2023-05-19T02:39:46.630Z,65
2023-05-19T02:44:30.749Z,65.5
2023-05-19T02:53:59.072Z,66.5
2023-05-19T02:58:43.289Z,67
2023-05-19T03:09:13.109Z,68
2023-05-19T03:13:57.334Z,68.5
2023-05-19T03:18:41.440Z,69
2023-05-19T03:23:25.676Z,69.5
2023-05-19T03:28:09.776Z,70
2023-05-19T03:32:53.993Z,70.5
2023-05-19T03:37:38.106Z,71
2023-05-19T03:42:22.326Z,71
2023-05-19T03:47:06.536Z,71.5
2023-05-19T03:51:50.657Z,71.5
2023-05-19T03:56:34.867Z,71.5
2023-05-19T04:01:18.977Z,72
2023-05-19T04:06:03.195Z,72
2023-05-19T04:11:48.798Z,71.5
2023-05-19T04:16:33.016Z,71.5
2023-05-19T04:21:17.135Z,71.5
2023-05-19T04:26:01.347Z,71.5
2023-05-19T04:30:45.662Z,71.5
2023-05-19T04:35:29.869Z,71.5
2023-05-19T04:40:14.003Z,71.5
2023-05-19T04:44:58.210Z,71
2023-05-19T04:49:42.425Z,71
2023-05-19T04:54:26.541Z,70.5
2023-05-19T04:59:10.755Z,69.5
2023-05-19T05:03:54.882Z,69.5
2023-05-19T05:08:39.078Z,69
2023-05-19T05:13:23.193Z,68.5
2023-05-19T05:22:51.522Z,68.5
2023-05-19T05:32:19.903Z,68.5
2023-05-19T05:37:04.130Z,68
2023-05-19T05:41:48.251Z,68
2023-05-19T05:46:32.464Z,67
2023-05-19T05:56:00.788Z,66
2023-05-19T06:00:45.125Z,66.5
2023-05-19T06:05:29.241Z,66
2023-05-19T06:14:57.683Z,66
2023-05-19T06:19:41.783Z,66
2023-05-19T06:24:25.983Z,65
2023-05-19T06:33:54.324Z,64
2023-05-19T06:48:06.793Z,64
2023-05-19T06:52:50.982Z,63
2023-05-19T06:57:35.218Z,62
2023-05-19T07:02:19.321Z,62
2023-05-19T07:07:03.534Z,61.5
2023-05-19T07:11:47.653Z,60.5
2023-05-19T07:16:31.872Z,61.5
2023-05-19T07:21:15.977Z,59.5
2023-05-19T07:26:00.201Z,58.5
2023-05-19T07:30:44.752Z,59
2023-05-19T07:35:28.899Z,58
2023-05-19T07:40:13.210Z,59.5
2023-05-19T07:44:57.311Z,58.5
2023-05-19T07:49:41.379Z,58.5
2023-05-19T07:59:09.725Z,60.5
2023-05-19T08:03:53.880Z,58.5
2023-05-19T08:08:38.034Z,58
2023-05-19T08:13:22.152Z,56.5
2023-05-19T08:18:06.377Z,57.5
2023-05-19T08:22:50.587Z,57.5
2023-05-19T08:27:34.711Z,57.5
2023-05-19T08:55:59.766Z,56.5
2023-05-19T09:00:44.130Z,54.5
2023-05-19T09:05:28.248Z,55
2023-05-19T09:19:40.698Z,50.5
2023-05-19T09:24:24.976Z,52
2023-05-19T09:29:09.090Z,45.5
2023-05-19T09:33:53.308Z,48.5
2023-05-19T09:38:37.455Z,49.5
2023-05-19T09:43:21.547Z,49
2023-05-19T09:48:05.797Z,50
2023-05-19T09:52:49.964Z,51
2023-05-19T09:57:34.159Z,51.5
2023-05-19T10:02:18.431Z,51
2023-05-19T10:07:02.602Z,49.5
2023-05-19T10:11:46.718Z,49.5
2023-05-19T10:16:30.919Z,47
2023-05-19T10:30:43.496Z,51
2023-05-19T10:40:11.771Z,47.5
2023-05-19T10:49:40.148Z,43
2023-05-19T10:59:08.471Z,47
2023-05-19T11:03:52.655Z,48
2023-05-19T11:18:05.151Z,48
2023-05-19T11:22:49.364Z,45
2023-05-19T11:27:33.535Z,45.5
2023-05-19T11:32:17.541Z,46.5
2023-05-19T11:46:30.234Z,42
2023-05-19T11:55:58.487Z,42.5
2023-05-19T12:05:26.842Z,39
2023-05-19T12:14:55.232Z,41.5
2023-05-19T12:19:39.512Z,43
2023-05-19T12:33:51.910Z,35.5
2023-05-19T12:43:20.282Z,41.5
2023-05-19T13:08:02.415Z,37.5
2023-05-19T13:12:46.641Z,38
2023-05-19T13:17:30.851Z,38
2023-05-19T13:36:27.576Z,35.5
2023-05-19T13:41:11.623Z,38.5
2023-05-19T13:45:55.842Z,43
2023-05-19T13:50:40.082Z,43.5
2023-05-19T13:55:24.179Z,44.5
2023-05-19T14:01:09.790Z,44
2023-05-19T14:05:54.055Z,41
2023-05-19T14:10:38.386Z,39.5
2023-05-19T14:15:22.518Z,42
2023-05-19T14:20:06.647Z,43
2023-05-19T14:34:19.147Z,44.5
2023-05-19T14:43:47.427Z,48
2023-05-19T14:53:15.926Z,48
2023-05-19T14:58:00.023Z,49.5
2023-05-19T15:02:44.256Z,50.5
2023-05-19T15:12:12.573Z,47
2023-05-19T15:16:56.659Z,43.5
2023-05-19T15:26:25.149Z,41
2023-05-19T15:31:09.534Z,45.5
2023-05-19T15:35:53.397Z,47.5
2023-05-19T15:40:37.635Z,49
2023-05-19T15:54:50.157Z,50
2023-05-19T15:59:34.401Z,50.5
2023-05-19T16:10:04.220Z,51.5
2023-05-19T16:14:48.410Z,52
2023-05-19T16:19:32.588Z,53
2023-05-19T16:24:16.846Z,54.5
2023-05-19T16:29:00.937Z,55
2023-05-19T16:33:45.229Z,55
2023-05-19T16:38:29.526Z,55.5
2023-05-19T16:43:13.412Z,54.5
2023-05-19T16:57:26.017Z,58
2023-05-19T17:02:10.180Z,58
2023-05-19T17:06:54.297Z,58.5
2023-05-19T17:11:38.511Z,58.5
2023-05-19T17:16:22.625Z,58
2023-05-19T17:25:51.080Z,58
2023-05-19T17:30:35.307Z,58.5
2023-05-19T17:35:19.490Z,60
2023-05-19T17:40:03.877Z,61
2023-05-19T17:49:32.143Z,62.5
2023-05-19T17:54:16.245Z,63
2023-05-19T17:59:00.517Z,63.5
2023-05-19T18:03:44.544Z,64
2023-05-19T18:08:28.929Z,65
2023-05-19T18:13:12.849Z,65.5
2023-05-19T18:17:57.169Z,65.5
2023-05-19T18:22:41.420Z,66
2023-05-19T18:27:25.546Z,66
2023-05-19T18:32:09.677Z,66.5
2023-05-19T18:36:53.703Z,67
2023-05-19T18:41:38.111Z,68.5
2023-05-19T18:46:22.343Z,69
2023-05-19T18:51:06.399Z,69.5
2023-05-19T18:55:50.686Z,70
2023-05-19T19:00:34.760Z,71
2023-05-19T19:05:19.428Z,71
2023-05-19T19:10:03.512Z,71.5
2023-05-19T19:14:48.015Z,72
2023-05-19T19:19:32.250Z,72.5
2023-05-19T19:24:16.583Z,73
2023-05-19T19:29:00.814Z,74
2023-05-19T19:52:41.765Z,76
2023-05-19T19:57:25.820Z,76
2023-05-19T20:02:10.156Z,76.5
2023-05-19T20:06:54.246Z,77
2023-05-19T20:11:38.448Z,77.5
2023-05-19T20:16:22.626Z,78
2023-05-19T20:21:06.759Z,78.5
2023-05-19T20:25:50.745Z,78.5
2023-05-19T20:30:34.969Z,79
2023-05-19T20:35:19.158Z,79.5
2023-05-19T20:40:03.311Z,80
2023-05-19T20:49:31.756Z,81
2023-05-19T21:08:28.290Z,82
2023-05-19T21:13:12.915Z,82
2023-05-19T21:17:57.074Z,82.5
2023-05-19T21:27:25.432Z,83
2023-05-19T21:36:53.672Z,83
2023-05-19T21:41:38.192Z,83
2023-05-19T21:46:22.627Z,83
2023-05-19T21:51:07.099Z,83
2023-05-19T21:55:51.615Z,83
2023-05-19T22:00:35.602Z,82.5
2023-05-19T22:05:19.917Z,82.5
2023-05-19T22:14:48.261Z,82.5
2023-05-19T22:19:32.459Z,82.5
2023-05-19T22:24:16.940Z,83
2023-05-19T22:29:01.052Z,82.5
2023-05-19T22:38:29.541Z,83
2023-05-19T22:43:13.790Z,83
2023-05-19T22:47:57.979Z,83
2023-05-19T22:52:42.218Z,83
2023-05-19T22:57:26.427Z,83
2023-05-19T23:02:10.607Z,83
2023-05-19T23:11:38.879Z,84
2023-05-19T23:16:22.926Z,84
2023-05-19T23:21:07.180Z,84
2023-05-19T23:25:51.485Z,84.5
2023-05-19T23:30:35.688Z,84.5
2023-05-19T23:40:04.164Z,84.5
2023-05-19T23:54:16.700Z,84
2023-05-19T23:59:00.878Z,84.5
